sensor_id;sensor_type;location;lat;lon;timestamp;pressure;altitude;pressure_sealevel;temperature;humidity
10464;BME280;5279;42.048;24.638;2023-03-25T00:00:49;97200.22;;;9.98;67.14
10464;BME280;5279;42.048;24.638;2023-03-25T00:03:18;97184.13;;;10.09;66.58
10464;BME280;5279;42.048;24.638;2023-03-25T00:05:44;97186.88;;;10.17;65.99
10464;BME280;5279;42.048;24.638;2023-03-25T00:08:11;97183.97;;;10.28;65.44
10464;BME280;5279;42.048;24.638;2023-03-25T00:10:38;97174.97;;;10.38;65.31
10464;BME280;5279;42.048;24.638;2023-03-25T00:13:06;97178.16;;;10.42;65.41
10464;BME280;5279;42.048;24.638;2023-03-25T00:15:33;97177.41;;;10.32;66.25
10464;BME280;5279;42.048;24.638;2023-03-25T00:18:00;97180.06;;;10.32;64.83
10464;BME280;5279;42.048;24.638;2023-03-25T00:20:28;97176.03;;;10.28;65.59
10464;BME280;5279;42.048;24.638;2023-03-25T00:22:56;97183.09;;;10.19;65.47
10464;BME280;5279;42.048;24.638;2023-03-25T00:25:25;97183.97;;;10.28;66.03
10464;BME280;5279;42.048;24.638;2023-03-25T00:27:52;97188.59;;;10.26;65.90
10464;BME280;5279;42.048;24.638;2023-03-25T00:30:20;97178.16;;;10.24;65.58
10464;BME280;5279;42.048;24.638;2023-03-25T00:32:47;97171.44;;;10.30;65.24
10464;BME280;5279;42.048;24.638;2023-03-25T00:35:17;97177.75;;;10.37;65.19
10464;BME280;5279;42.048;24.638;2023-03-25T00:37:44;97176.47;;;10.41;64.98
10464;BME280;5279;42.048;24.638;2023-03-25T00:40:12;97172.03;;;10.41;64.61
10464;BME280;5279;42.048;24.638;2023-03-25T00:42:39;97173.00;;;10.40;65.15
10464;BME280;5279;42.048;24.638;2023-03-25T00:45:14;97163.41;;;10.39;66.11
10464;BME280;5279;42.048;24.638;2023-03-25T00:47:44;97164.53;;;10.37;66.12
10464;BME280;5279;42.048;24.638;2023-03-25T00:50:11;97159.53;;;10.34;66.53
10464;BME280;5279;42.048;24.638;2023-03-25T00:52:38;97152.06;;;10.29;66.40
10464;BME280;5279;42.048;24.638;2023-03-25T00:55:06;97153.56;;;10.32;65.97
10464;BME280;5279;42.048;24.638;2023-03-25T00:57:33;97153.56;;;10.32;65.95
10464;BME280;5279;42.048;24.638;2023-03-25T01:00:00;97143.66;;;10.34;65.89
10464;BME280;5279;42.048;24.638;2023-03-25T01:02:28;97143.13;;;10.30;65.91
10464;BME280;5279;42.048;24.638;2023-03-25T01:04:56;97159.00;;;10.30;66.17
10464;BME280;5279;42.048;24.638;2023-03-25T01:07:24;97161.16;;;10.27;66.59
10464;BME280;5279;42.048;24.638;2023-03-25T01:09:53;97162.97;;;10.26;66.33
10464;BME280;5279;42.048;24.638;2023-03-25T01:12:21;97156.34;;;10.13;67.05
10464;BME280;5279;42.048;24.638;2023-03-25T01:14:48;97153.03;;;10.11;67.55
10464;BME280;5279;42.048;24.638;2023-03-25T01:17:15;97151.34;;;10.10;67.66
10464;BME280;5279;42.048;24.638;2023-03-25T01:19:42;97153.13;;;9.83;68.97
10464;BME280;5279;42.048;24.638;2023-03-25T01:22:10;97153.19;;;9.92;68.29
10464;BME280;5279;42.048;24.638;2023-03-25T01:24:37;97143.50;;;9.82;69.13
10464;BME280;5279;42.048;24.638;2023-03-25T01:27:04;97138.50;;;9.79;69.97
10464;BME280;5279;42.048;24.638;2023-03-25T01:29:31;97134.59;;;9.83;69.25
10464;BME280;5279;42.048;24.638;2023-03-25T01:31:58;97126.34;;;9.86;69.47
10464;BME280;5279;42.048;24.638;2023-03-25T01:34:25;97127.72;;;9.91;69.62
10464;BME280;5279;42.048;24.638;2023-03-25T01:36:52;97117.50;;;9.96;69.73
10464;BME280;5279;42.048;24.638;2023-03-25T01:39:21;97112.22;;;9.96;69.75
10464;BME280;5279;42.048;24.638;2023-03-25T01:41:49;97115.00;;;9.94;69.25
10464;BME280;5279;42.048;24.638;2023-03-25T01:47:23;97115.06;;;9.49;72.20
10464;BME280;5279;42.048;24.638;2023-03-25T01:49:51;97119.81;;;9.46;73.10
10464;BME280;5279;42.048;24.638;2023-03-25T01:52:22;97112.00;;;9.09;77.89
10464;BME280;5279;42.048;24.638;2023-03-25T01:54:52;97109.34;;;9.09;77.89
10464;BME280;5279;42.048;24.638;2023-03-25T01:57:21;97106.41;;;9.12;77.99
10464;BME280;5279;42.048;24.638;2023-03-25T01:59:49;97111.34;;;9.24;77.07
10464;BME280;5279;42.048;24.638;2023-03-25T02:02:17;97110.13;;;9.37;75.80
10464;BME280;5279;42.048;24.638;2023-03-25T02:04:50;97100.94;;;9.41;75.28
10464;BME280;5279;42.048;24.638;2023-03-25T02:07:27;97098.94;;;9.25;76.64
10464;BME280;5279;42.048;24.638;2023-03-25T02:09:57;97097.50;;;9.13;77.54
10464;BME280;5279;42.048;24.638;2023-03-25T02:12:25;97096.59;;;9.22;76.42
10464;BME280;5279;42.048;24.638;2023-03-25T02:14:52;97091.03;;;9.25;77.14
10464;BME280;5279;42.048;24.638;2023-03-25T02:17:25;97080.84;;;9.30;76.73
10464;BME280;5279;42.048;24.638;2023-03-25T02:23:16;97084.69;;;9.18;78.99
10464;BME280;5279;42.048;24.638;2023-03-25T02:26:09;97085.72;;;9.25;77.81
10464;BME280;5279;42.048;24.638;2023-03-25T02:28:46;97085.72;;;9.25;77.96
10464;BME280;5279;42.048;24.638;2023-03-25T02:34:22;97085.66;;;9.17;80.35
10464;BME280;5279;42.048;24.638;2023-03-25T02:40:25;97082.34;;;9.15;78.76
10464;BME280;5279;42.048;24.638;2023-03-25T02:43:00;97083.91;;;9.08;80.10
10464;BME280;5279;42.048;24.638;2023-03-25T02:45:30;97080.50;;;9.15;80.17
10464;BME280;5279;42.048;24.638;2023-03-25T02:48:01;97084.38;;;9.21;79.54
10464;BME280;5279;42.048;24.638;2023-03-25T02:50:33;97076.84;;;9.26;79.16
10464;BME280;5279;42.048;24.638;2023-03-25T02:53:04;97075.16;;;9.25;79.52
10464;BME280;5279;42.048;24.638;2023-03-25T02:55:37;97070.56;;;9.27;78.63
10464;BME280;5279;42.048;24.638;2023-03-25T02:58:11;97062.16;;;9.14;80.11
10464;BME280;5279;42.048;24.638;2023-03-25T03:00:39;97069.88;;;9.25;80.88
10464;BME280;5279;42.048;24.638;2023-03-25T03:03:06;97064.59;;;9.25;80.32
10464;BME280;5279;42.048;24.638;2023-03-25T03:05:35;97061.63;;;9.28;80.25
10464;BME280;5279;42.048;24.638;2023-03-25T03:08:16;97055.38;;;9.29;80.29
10464;BME280;5279;42.048;24.638;2023-03-25T03:10:51;97052.75;;;9.29;80.40
10464;BME280;5279;42.048;24.638;2023-03-25T03:13:30;97049.25;;;9.28;81.56
10464;BME280;5279;42.048;24.638;2023-03-25T03:16:07;97050.34;;;9.36;81.20
10464;BME280;5279;42.048;24.638;2023-03-25T03:18:43;97049.50;;;9.35;80.02
10464;BME280;5279;42.048;24.638;2023-03-25T03:21:17;97041.94;;;9.40;79.73
10464;BME280;5279;42.048;24.638;2023-03-25T03:23:54;97042.09;;;9.21;81.92
10464;BME280;5279;42.048;24.638;2023-03-25T03:26:28;97038.56;;;9.03;83.15
10464;BME280;5279;42.048;24.638;2023-03-25T03:29:05;97035.59;;;8.88;83.39
10464;BME280;5279;42.048;24.638;2023-03-25T03:31:37;97027.53;;;8.90;83.71
10464;BME280;5279;42.048;24.638;2023-03-25T03:34:10;97035.56;;;8.98;84.03
10464;BME280;5279;42.048;24.638;2023-03-25T03:36:43;97040.94;;;9.06;83.75
10464;BME280;5279;42.048;24.638;2023-03-25T03:39:16;97020.28;;;8.92;84.78
10464;BME280;5279;42.048;24.638;2023-03-25T03:41:50;97031.88;;;9.08;83.30
10464;BME280;5279;42.048;24.638;2023-03-25T03:44:19;97029.72;;;8.94;83.60
10464;BME280;5279;42.048;24.638;2023-03-25T03:46:52;97034.41;;;9.00;83.98
10464;BME280;5279;42.048;24.638;2023-03-25T03:49:26;97039.81;;;9.08;83.14
10464;BME280;5279;42.048;24.638;2023-03-25T03:51:57;97042.00;;;9.13;83.26
10464;BME280;5279;42.048;24.638;2023-03-25T03:54:28;97035.19;;;8.93;85.66
10464;BME280;5279;42.048;24.638;2023-03-25T03:57:02;97043.69;;;8.87;88.77
10464;BME280;5279;42.048;24.638;2023-03-25T03:59:38;97040.28;;;8.94;88.16
10464;BME280;5279;42.048;24.638;2023-03-25T04:02:10;97036.38;;;8.98;87.29
10464;BME280;5279;42.048;24.638;2023-03-25T04:04:39;97033.28;;;9.03;86.27
10464;BME280;5279;42.048;24.638;2023-03-25T04:07:11;97037.84;;;9.10;85.22
10464;BME280;5279;42.048;24.638;2023-03-25T04:09:45;97034.53;;;9.08;85.49
10464;BME280;5279;42.048;24.638;2023-03-25T04:12:23;97035.47;;;8.90;86.77
10464;BME280;5279;42.048;24.638;2023-03-25T04:14:52;97035.59;;;8.88;87.75
10464;BME280;5279;42.048;24.638;2023-03-25T04:17:19;97035.47;;;8.90;87.84
10464;BME280;5279;42.048;24.638;2023-03-25T04:19:46;97030.31;;;8.88;88.55
10464;BME280;5279;42.048;24.638;2023-03-25T04:22:14;97036.72;;;8.86;89.31
10464;BME280;5279;42.048;24.638;2023-03-25T04:24:42;97038.41;;;8.87;89.28
10464;BME280;5279;42.048;24.638;2023-03-25T04:27:09;97041.44;;;8.92;89.06
10464;BME280;5279;42.048;24.638;2023-03-25T04:29:42;97043.84;;;9.03;89.04
10464;BME280;5279;42.048;24.638;2023-03-25T04:32:10;97043.56;;;8.78;90.93
10464;BME280;5279;42.048;24.638;2023-03-25T04:34:37;97044.06;;;8.92;89.74
10464;BME280;5279;42.048;24.638;2023-03-25T04:37:04;97044.75;;;8.94;89.93
10464;BME280;5279;42.048;24.638;2023-03-25T04:39:33;97048.88;;;9.06;88.40
10464;BME280;5279;42.048;24.638;2023-03-25T04:42:00;97049.78;;;9.14;87.93
10464;BME280;5279;42.048;24.638;2023-03-25T04:44:28;97056.34;;;9.28;87.40
10464;BME280;5279;42.048;24.638;2023-03-25T04:46:59;97050.63;;;9.32;84.16
10464;BME280;5279;42.048;24.638;2023-03-25T04:49:27;97056.97;;;9.40;82.99
10464;BME280;5279;42.048;24.638;2023-03-25T04:51:54;97062.78;;;9.43;84.07
10464;BME280;5279;42.048;24.638;2023-03-25T04:54:21;97058.78;;;9.57;81.41
10464;BME280;5279;42.048;24.638;2023-03-25T04:56:48;97063.72;;;9.69;79.23
10464;BME280;5279;42.048;24.638;2023-03-25T04:59:16;97067.69;;;9.73;79.36
10464;BME280;5279;42.048;24.638;2023-03-25T05:01:44;97057.56;;;9.86;78.69
10464;BME280;5279;42.048;24.638;2023-03-25T05:04:17;97070.09;;;10.02;79.04
10464;BME280;5279;42.048;24.638;2023-03-25T05:06:46;97052.69;;;10.17;79.09
10464;BME280;5279;42.048;24.638;2023-03-25T05:09:15;97046.28;;;10.28;80.46
10464;BME280;5279;42.048;24.638;2023-03-25T05:11:43;97053.69;;;10.42;76.25
10464;BME280;5279;42.048;24.638;2023-03-25T05:14:12;97050.41;;;10.48;74.93
10464;BME280;5279;42.048;24.638;2023-03-25T05:16:40;97040.13;;;10.45;74.22
10464;BME280;5279;42.048;24.638;2023-03-25T05:19:07;97048.81;;;10.63;73.96
10464;BME280;5279;42.048;24.638;2023-03-25T05:21:37;97043.31;;;10.90;73.79
10464;BME280;5279;42.048;24.638;2023-03-25T05:24:08;97034.72;;;11.13;71.96
10464;BME280;5279;42.048;24.638;2023-03-25T05:26:35;97035.81;;;11.36;72.13
10464;BME280;5279;42.048;24.638;2023-03-25T05:29:03;97045.44;;;11.61;69.69
10464;BME280;5279;42.048;24.638;2023-03-25T05:31:30;97049.28;;;11.83;69.08
10464;BME280;5279;42.048;24.638;2023-03-25T05:33:57;97047.81;;;12.04;67.44
10464;BME280;5279;42.048;24.638;2023-03-25T05:36:24;97043.81;;;12.25;65.73
10464;BME280;5279;42.048;24.638;2023-03-25T05:38:52;97044.13;;;12.30;64.60
10464;BME280;5279;42.048;24.638;2023-03-25T05:41:20;97055.06;;;12.35;64.78
10464;BME280;5279;42.048;24.638;2023-03-25T05:43:59;97042.75;;;12.50;62.33
10464;BME280;5279;42.048;24.638;2023-03-25T05:46:26;97034.44;;;12.53;62.86
10464;BME280;5279;42.048;24.638;2023-03-25T05:48:54;97034.88;;;12.65;62.70
10464;BME280;5279;42.048;24.638;2023-03-25T05:51:23;97038.03;;;12.76;62.83
10464;BME280;5279;42.048;24.638;2023-03-25T05:53:52;97044.28;;;12.83;62.68
10464;BME280;5279;42.048;24.638;2023-03-25T05:56:21;97038.91;;;12.99;62.89
10464;BME280;5279;42.048;24.638;2023-03-25T05:58:50;97038.88;;;13.16;61.74
10464;BME280;5279;42.048;24.638;2023-03-25T06:01:20;97030.75;;;13.40;60.62
10464;BME280;5279;42.048;24.638;2023-03-25T06:03:47;97038.59;;;13.64;59.74
10464;BME280;5279;42.048;24.638;2023-03-25T06:06:15;97035.38;;;13.91;58.01
10464;BME280;5279;42.048;24.638;2023-03-25T06:08:44;97028.25;;;14.06;56.88
10464;BME280;5279;42.048;24.638;2023-03-25T06:11:13;97037.34;;;14.35;56.20
10464;BME280;5279;42.048;24.638;2023-03-25T06:13:40;97033.22;;;14.61;55.10
10464;BME280;5279;42.048;24.638;2023-03-25T06:16:16;97038.81;;;14.81;53.96
10464;BME280;5279;42.048;24.638;2023-03-25T06:18:44;97035.47;;;15.08;53.39
10464;BME280;5279;42.048;24.638;2023-03-25T06:21:16;97036.44;;;15.37;52.81
10464;BME280;5279;42.048;24.638;2023-03-25T06:23:43;97033.47;;;15.46;51.77
10464;BME280;5279;42.048;24.638;2023-03-25T06:26:12;97038.09;;;15.73;51.13
10464;BME280;5279;42.048;24.638;2023-03-25T06:28:39;97039.94;;;15.73;51.16
10464;BME280;5279;42.048;24.638;2023-03-25T06:31:11;97039.38;;;15.99;51.13
10464;BME280;5279;42.048;24.638;2023-03-25T06:33:38;97042.22;;;15.97;50.32
10464;BME280;5279;42.048;24.638;2023-03-25T06:36:06;97041.63;;;15.95;51.44
10464;BME280;5279;42.048;24.638;2023-03-25T06:38:33;97038.84;;;16.10;51.51
10464;BME280;5279;42.048;24.638;2023-03-25T06:41:00;97037.63;;;16.12;51.07
10464;BME280;5279;42.048;24.638;2023-03-25T06:43:28;97043.34;;;16.30;50.44
10464;BME280;5279;42.048;24.638;2023-03-25T06:45:55;97041.06;;;16.27;50.64
10464;BME280;5279;42.048;24.638;2023-03-25T06:48:22;97038.22;;;16.35;50.95
10464;BME280;5279;42.048;24.638;2023-03-25T06:50:49;97031.25;;;16.34;50.59
10464;BME280;5279;42.048;24.638;2023-03-25T06:53:16;97029.44;;;16.41;51.19
10464;BME280;5279;42.048;24.638;2023-03-25T06:55:43;97032.41;;;16.53;50.34
10464;BME280;5279;42.048;24.638;2023-03-25T06:58:11;97034.72;;;16.56;50.90
10464;BME280;5279;42.048;24.638;2023-03-25T07:00:39;97026.97;;;16.68;51.43
10464;BME280;5279;42.048;24.638;2023-03-25T07:03:08;97030.03;;;16.99;50.82
10464;BME280;5279;42.048;24.638;2023-03-25T07:05:35;97030.75;;;17.27;49.30
10464;BME280;5279;42.048;24.638;2023-03-25T07:08:02;97028.16;;;17.47;49.12
10464;BME280;5279;42.048;24.638;2023-03-25T07:10:37;97023.91;;;17.59;49.27
10464;BME280;5279;42.048;24.638;2023-03-25T07:13:04;97026.41;;;17.80;49.07
10464;BME280;5279;42.048;24.638;2023-03-25T07:15:31;97035.69;;;17.78;49.56
10464;BME280;5279;42.048;24.638;2023-03-25T07:17:59;97032.59;;;17.87;48.45
10464;BME280;5279;42.048;24.638;2023-03-25T07:20:26;97029.94;;;17.81;48.94
10464;BME280;5279;42.048;24.638;2023-03-25T07:22:53;97016.94;;;17.91;48.33
10464;BME280;5279;42.048;24.638;2023-03-25T07:25:20;97018.38;;;17.93;48.25
10464;BME280;5279;42.048;24.638;2023-03-25T07:27:47;97021.91;;;18.14;48.07
10464;BME280;5279;42.048;24.638;2023-03-25T07:30:14;97015.72;;;18.13;47.74
10464;BME280;5279;42.048;24.638;2023-03-25T07:32:43;97028.53;;;18.50;47.88
10464;BME280;5279;42.048;24.638;2023-03-25T07:35:11;97017.56;;;18.52;45.79
10464;BME280;5279;42.048;24.638;2023-03-25T07:37:38;97019.84;;;18.62;46.10
10464;BME280;5279;42.048;24.638;2023-03-25T07:40:06;97013.03;;;18.52;46.03
10464;BME280;5279;42.048;24.638;2023-03-25T07:42:35;97016.13;;;18.63;45.90
10464;BME280;5279;42.048;24.638;2023-03-25T07:45:01;97009.25;;;18.93;45.41
10464;BME280;5279;42.048;24.638;2023-03-25T07:47:28;97015.63;;;18.92;44.86
10464;BME280;5279;42.048;24.638;2023-03-25T07:49:55;97015.97;;;19.15;45.21
10464;BME280;5279;42.048;24.638;2023-03-25T07:52:23;97001.50;;;19.16;44.53
10464;BME280;5279;42.048;24.638;2023-03-25T07:54:50;97008.47;;;19.30;44.21
10464;BME280;5279;42.048;24.638;2023-03-25T07:57:17;97001.44;;;19.42;43.49
10464;BME280;5279;42.048;24.638;2023-03-25T07:59:44;97010.81;;;19.64;43.24
10464;BME280;5279;42.048;24.638;2023-03-25T08:02:13;97007.25;;;19.71;43.20
10464;BME280;5279;42.048;24.638;2023-03-25T08:04:40;96999.09;;;19.84;42.42
10464;BME280;5279;42.048;24.638;2023-03-25T08:07:07;96999.28;;;19.89;42.80
10464;BME280;5279;42.048;24.638;2023-03-25T08:09:36;96996.06;;;20.05;41.70
10464;BME280;5279;42.048;24.638;2023-03-25T08:12:03;96985.19;;;20.18;41.70
10464;BME280;5279;42.048;24.638;2023-03-25T08:14:30;96991.75;;;20.22;42.15
10464;BME280;5279;42.048;24.638;2023-03-25T08:16:58;96991.13;;;20.51;42.25
10464;BME280;5279;42.048;24.638;2023-03-25T08:19:24;96982.53;;;20.61;40.88
10464;BME280;5279;42.048;24.638;2023-03-25T08:21:51;96984.00;;;20.82;39.98
10464;BME280;5279;42.048;24.638;2023-03-25T08:24:18;96990.34;;;20.87;39.08
10464;BME280;5279;42.048;24.638;2023-03-25T08:26:46;96986.91;;;20.98;39.68
10464;BME280;5279;42.048;24.638;2023-03-25T08:29:13;96982.22;;;21.12;39.80
10464;BME280;5279;42.048;24.638;2023-03-25T08:31:42;96981.84;;;21.08;39.05
10464;BME280;5279;42.048;24.638;2023-03-25T08:34:12;96988.41;;;21.31;39.41
10464;BME280;5279;42.048;24.638;2023-03-25T08:36:39;96988.00;;;21.45;38.92
10464;BME280;5279;42.048;24.638;2023-03-25T08:39:06;96991.25;;;21.65;38.43
10464;BME280;5279;42.048;24.638;2023-03-25T08:41:36;96993.25;;;21.40;38.44
10464;BME280;5279;42.048;24.638;2023-03-25T08:44:05;96990.38;;;21.53;38.15
10464;BME280;5279;42.048;24.638;2023-03-25T08:46:32;96987.41;;;21.73;38.01
10464;BME280;5279;42.048;24.638;2023-03-25T08:48:58;96982.63;;;21.87;37.82
10464;BME280;5279;42.048;24.638;2023-03-25T08:51:25;96975.91;;;21.77;38.49
10464;BME280;5279;42.048;24.638;2023-03-25T08:53:52;96974.28;;;22.06;38.23
10464;BME280;5279;42.048;24.638;2023-03-25T08:56:19;96971.53;;;21.95;38.98
10464;BME280;5279;42.048;24.638;2023-03-25T08:58:46;96962.44;;;22.19;38.16
10464;BME280;5279;42.048;24.638;2023-03-25T09:01:14;96961.63;;;22.30;37.13
10464;BME280;5279;42.048;24.638;2023-03-25T09:03:41;96965.97;;;22.31;37.64
10464;BME280;5279;42.048;24.638;2023-03-25T09:06:08;96951.28;;;22.62;36.90
10464;BME280;5279;42.048;24.638;2023-03-25T09:08:35;96947.63;;;22.56;36.58
10464;BME280;5279;42.048;24.638;2023-03-25T09:11:03;96950.47;;;22.84;37.10
10464;BME280;5279;42.048;24.638;2023-03-25T09:13:30;96947.34;;;23.16;35.58
10464;BME280;5279;42.048;24.638;2023-03-25T09:15:56;96931.59;;;23.13;36.06
10464;BME280;5279;42.048;24.638;2023-03-25T09:18:25;96934.63;;;23.28;35.68
10464;BME280;5279;42.048;24.638;2023-03-25T09:20:57;96922.16;;;23.27;34.89
10464;BME280;5279;42.048;24.638;2023-03-25T09:23:24;96918.16;;;23.74;35.70
10464;BME280;5279;42.048;24.638;2023-03-25T09:25:50;96916.88;;;23.93;34.61
10464;BME280;5279;42.048;24.638;2023-03-25T09:28:17;96907.94;;;24.81;33.52
10464;BME280;5279;42.048;24.638;2023-03-25T09:30:44;96912.75;;;26.25;32.31
10464;BME280;5279;42.048;24.638;2023-03-25T09:33:11;96905.22;;;27.41;29.68
10464;BME280;5279;42.048;24.638;2023-03-25T09:35:40;96894.94;;;28.49;28.01
10464;BME280;5279;42.048;24.638;2023-03-25T09:38:07;96887.03;;;29.42;27.16
10464;BME280;5279;42.048;24.638;2023-03-25T09:40:34;96888.22;;;30.08;26.05
10464;BME280;5279;42.048;24.638;2023-03-25T09:43:06;96898.38;;;30.37;25.27
10464;BME280;5279;42.048;24.638;2023-03-25T09:45:43;96884.91;;;30.45;24.12
10464;BME280;5279;42.048;24.638;2023-03-25T09:48:23;96874.47;;;31.23;24.51
10464;BME280;5279;42.048;24.638;2023-03-25T09:50:54;96880.31;;;32.10;23.79
10464;BME280;5279;42.048;24.638;2023-03-25T09:53:27;96872.38;;;33.14;22.81
10464;BME280;5279;42.048;24.638;2023-03-25T09:55:56;96868.22;;;33.30;22.01
10464;BME280;5279;42.048;24.638;2023-03-25T09:58:33;96867.59;;;33.83;21.77
10464;BME280;5279;42.048;24.638;2023-03-25T10:01:11;96862.44;;;33.90;20.96
10464;BME280;5279;42.048;24.638;2023-03-25T10:03:50;96860.09;;;34.72;19.99
10464;BME280;5279;42.048;24.638;2023-03-25T10:06:21;96840.34;;;35.18;19.70
10464;BME280;5279;42.048;24.638;2023-03-25T10:09:08;96844.59;;;36.53;18.81
10464;BME280;5279;42.048;24.638;2023-03-25T10:11:46;96839.75;;;36.41;18.46
10464;BME280;5279;42.048;24.638;2023-03-25T10:14:19;96843.16;;;36.85;18.03
10464;BME280;5279;42.048;24.638;2023-03-25T10:16:59;96826.91;;;36.92;17.58
10464;BME280;5279;42.048;24.638;2023-03-25T10:19:40;96830.28;;;37.76;17.01
10464;BME280;5279;42.048;24.638;2023-03-25T10:22:14;96818.69;;;38.16;17.16
10464;BME280;5279;42.048;24.638;2023-03-25T10:24:48;96812.31;;;38.93;16.50
10464;BME280;5279;42.048;24.638;2023-03-25T10:27:20;96810.31;;;37.92;16.77
10464;BME280;5279;42.048;24.638;2023-03-25T10:29:51;96795.91;;;37.45;16.81
10464;BME280;5279;42.048;24.638;2023-03-25T10:32:27;96795.16;;;36.22;18.24
10464;BME280;5279;42.048;24.638;2023-03-25T10:34:56;96791.56;;;36.77;17.59
10464;BME280;5279;42.048;24.638;2023-03-25T10:37:29;96795.19;;;36.51;17.71
10464;BME280;5279;42.048;24.638;2023-03-25T10:39:59;96789.88;;;35.66;18.43
10464;BME280;5279;42.048;24.638;2023-03-25T10:42:39;96792.28;;;35.67;19.29
10464;BME280;5279;42.048;24.638;2023-03-25T10:45:11;96787.03;;;36.00;18.31
10464;BME280;5279;42.048;24.638;2023-03-25T10:47:39;96781.50;;;36.26;17.76
10464;BME280;5279;42.048;24.638;2023-03-25T10:50:13;96779.63;;;36.85;17.53
10464;BME280;5279;42.048;24.638;2023-03-25T10:52:42;96769.47;;;36.39;17.54
10464;BME280;5279;42.048;24.638;2023-03-25T10:55:20;96769.63;;;36.80;17.70
10464;BME280;5279;42.048;24.638;2023-03-25T10:57:49;96768.44;;;36.90;17.00
10464;BME280;5279;42.048;24.638;2023-03-25T11:00:17;96764.19;;;35.91;17.42
10464;BME280;5279;42.048;24.638;2023-03-25T11:02:45;96756.91;;;35.09;18.34
10464;BME280;5279;42.048;24.638;2023-03-25T11:05:15;96760.09;;;34.94;19.05
10464;BME280;5279;42.048;24.638;2023-03-25T11:07:48;96760.81;;;35.42;18.26
10464;BME280;5279;42.048;24.638;2023-03-25T11:10:20;96758.69;;;35.91;17.96
10464;BME280;5279;42.048;24.638;2023-03-25T11:12:49;96761.56;;;36.20;17.22
10464;BME280;5279;42.048;24.638;2023-03-25T11:15:18;96744.41;;;36.82;17.16
10464;BME280;5279;42.048;24.638;2023-03-25T11:17:47;96738.78;;;36.78;17.67
10464;BME280;5279;42.048;24.638;2023-03-25T11:20:26;96739.38;;;38.08;16.10
10464;BME280;5279;42.048;24.638;2023-03-25T11:23:03;96730.69;;;38.42;15.75
10464;BME280;5279;42.048;24.638;2023-03-25T11:25:34;96734.16;;;39.00;15.77
10464;BME280;5279;42.048;24.638;2023-03-25T11:28:09;96721.84;;;39.93;14.64
10464;BME280;5279;42.048;24.638;2023-03-25T11:31:07;96720.06;;;40.59;14.33
10464;BME280;5279;42.048;24.638;2023-03-25T11:33:34;96707.06;;;40.63;14.21
10464;BME280;5279;42.048;24.638;2023-03-25T11:36:21;96697.75;;;41.79;13.38
10464;BME280;5279;42.048;24.638;2023-03-25T11:38:57;96701.84;;;42.08;13.66
10464;BME280;5279;42.048;24.638;2023-03-25T11:41:30;96698.72;;;42.55;12.84
10464;BME280;5279;42.048;24.638;2023-03-25T11:43:58;96690.41;;;43.08;12.63
10464;BME280;5279;42.048;24.638;2023-03-25T11:46:25;96678.31;;;43.56;12.84
10464;BME280;5279;42.048;24.638;2023-03-25T11:48:52;96680.09;;;43.12;12.54
10464;BME280;5279;42.048;24.638;2023-03-25T11:51:21;96679.97;;;43.64;11.93
10464;BME280;5279;42.048;24.638;2023-03-25T11:53:55;96673.53;;;43.60;12.17
10464;BME280;5279;42.048;24.638;2023-03-25T11:56:27;96664.19;;;42.37;12.31
10464;BME280;5279;42.048;24.638;2023-03-25T11:58:57;96657.38;;;42.83;12.06
10464;BME280;5279;42.048;24.638;2023-03-25T12:01:27;96650.78;;;43.25;12.19
10464;BME280;5279;42.048;24.638;2023-03-25T12:04:12;96658.53;;;43.09;12.55
10464;BME280;5279;42.048;24.638;2023-03-25T12:06:52;96642.41;;;43.25;12.15
10464;BME280;5279;42.048;24.638;2023-03-25T12:09:21;96636.97;;;43.06;12.16
10464;BME280;5279;42.048;24.638;2023-03-25T12:11:53;96631.34;;;43.02;11.96
10464;BME280;5279;42.048;24.638;2023-03-25T12:14:33;96633.31;;;43.61;12.05
10464;BME280;5279;42.048;24.638;2023-03-25T12:17:09;96626.09;;;43.27;12.21
10464;BME280;5279;42.048;24.638;2023-03-25T12:19:48;96620.91;;;42.43;12.38
10464;BME280;5279;42.048;24.638;2023-03-25T12:22:32;96615.44;;;42.50;12.66
10464;BME280;5279;42.048;24.638;2023-03-25T12:25:23;96620.91;;;42.95;12.38
10464;BME280;5279;42.048;24.638;2023-03-25T12:28:01;96627.78;;;41.39;12.88
10464;BME280;5279;42.048;24.638;2023-03-25T12:30:51;96617.59;;;39.48;14.18
10464;BME280;5279;42.048;24.638;2023-03-25T12:33:30;96614.22;;;38.87;14.97
10464;BME280;5279;42.048;24.638;2023-03-25T12:36:16;96602.63;;;38.33;15.41
10464;BME280;5279;42.048;24.638;2023-03-25T12:38:51;96603.28;;;37.69;15.52
10464;BME280;5279;42.048;24.638;2023-03-25T12:41:29;96599.91;;;36.98;15.92
10464;BME280;5279;42.048;24.638;2023-03-25T12:44:03;96594.41;;;35.09;17.46
10464;BME280;5279;42.048;24.638;2023-03-25T12:46:50;96596.00;;;33.63;18.36
10464;BME280;5279;42.048;24.638;2023-03-25T12:49:32;96598.53;;;32.62;19.58
10464;BME280;5279;42.048;24.638;2023-03-25T12:52:06;96592.59;;;31.78;20.53
10464;BME280;5279;42.048;24.638;2023-03-25T12:54:48;96586.75;;;31.38;20.88
10464;BME280;5279;42.048;24.638;2023-03-25T12:57:31;96570.75;;;32.00;20.06
10464;BME280;5279;42.048;24.638;2023-03-25T13:00:17;96576.25;;;31.59;20.59
10464;BME280;5279;42.048;24.638;2023-03-25T13:05:58;96573.19;;;29.84;22.15
10464;BME280;5279;42.048;24.638;2023-03-25T13:08:30;96572.13;;;29.33;23.22
10464;BME280;5279;42.048;24.638;2023-03-25T13:11:02;96571.53;;;28.73;24.42
10464;BME280;5279;42.048;24.638;2023-03-25T13:13:35;96563.53;;;28.43;25.57
10464;BME280;5279;42.048;24.638;2023-03-25T13:16:07;96559.09;;;28.57;25.23
10464;BME280;5279;42.048;24.638;2023-03-25T13:18:38;96559.22;;;28.37;25.11
10464;BME280;5279;42.048;24.638;2023-03-25T13:21:09;96545.69;;;28.21;25.41
10464;BME280;5279;42.048;24.638;2023-03-25T13:23:38;96553.75;;;30.09;24.61
10464;BME280;5279;42.048;24.638;2023-03-25T13:26:08;96542.03;;;32.61;21.44
10464;BME280;5279;42.048;24.638;2023-03-25T13:28:39;96544.34;;;35.07;19.08
10464;BME280;5279;42.048;24.638;2023-03-25T13:31:14;96539.56;;;35.42;18.30
10464;BME280;5279;42.048;24.638;2023-03-25T13:33:45;96541.25;;;36.31;18.25
10464;BME280;5279;42.048;24.638;2023-03-25T13:36:18;96535.75;;;36.93;17.20